Time;durP1;ratioP1;P1;durP2;ratioP2;P2;SDS_P1;SDS_P2;PMS_P1;PMS_P2;Temp;Humidity;BMP_temperature;BMP_pressure;BME280_temperature;BME280_humidity;BME280_pressure;Samples;Min_cycle;Max_cycle;Signal;HPM_P1;HPM_P2
2021/11/25 00:02:13;;;;;;;14.48;8.68;;;;;;;;;;5013183;28;20472;-77
2021/11/25 00:04:43;;;;;;;12.75;8.75;;;;;;;;;;5012831;28;20467;-74
2021/11/25 00:07:12;;;;;;;13.68;8.30;;;;;;;;;;5012772;28;20049;-76
2021/11/25 00:09:39;;;;;;;10.50;6.38;;;;;;;;;;5012851;28;20046;-74
2021/11/25 00:12:08;;;;;;;10.30;7.80;;;;;;;;;;5012466;28;20045;-77
2021/11/25 00:14:36;;;;;;;12.32;8.60;;;;;;;;;;5012558;28;20042;-73
2021/11/25 00:17:04;;;;;;;12.27;8.50;;;;;;;;;;4996145;28;20048;-76
2021/11/25 00:19:32;;;;;;;11.95;7.28;;;;;;;;;;4995702;28;20069;-74
2021/11/25 00:21:59;;;;;;;12.85;7.68;;;;;;;;;;5012719;28;20052;-77
2021/11/25 00:24:28;;;;;;;10.52;7.97;;;;;;;;;;5012066;28;20108;-73
2021/11/25 00:26:56;;;;;;;8.35;6.50;;;;;;;;;;4995560;28;20077;-74
2021/11/25 00:29:26;;;;;;;15.85;8.88;;;;;;;;;;4995124;28;20551;-74
2021/11/25 00:31:53;;;;;;;9.88;7.97;;;;;;;;;;5014408;28;20049;-74
2021/11/25 00:34:21;;;;;;;9.77;7.15;;;;;;;;;;5016684;28;20041;-77
2021/11/25 00:36:49;;;;;;;9.25;6.82;;;;;;;;;;4999086;28;20117;-74
2021/11/25 00:39:17;;;;;;;7.38;5.93;;;;;;;;;;5015714;28;20397;-76
2021/11/25 00:41:47;;;;;;;8.68;6.50;;;;;;;;;;4999070;28;20068;-74
2021/11/25 00:44:15;;;;;;;10.07;6.75;;;;;;;;;;5015849;28;20056;-77
2021/11/25 00:46:44;;;;;;;10.43;7.22;;;;;;;;;;5016241;28;20042;-77
2021/11/25 00:49:11;;;;;;;12.02;7.28;;;;;;;;;;5016150;28;20046;-74
2021/11/25 00:51:39;;;;;;;13.93;7.22;;;;;;;;;;5016187;28;20049;-74
2021/11/25 00:54:07;;;;;;;9.85;6.78;;;;;;;;;;5013096;28;20044;-73
2021/11/25 00:56:38;;;;;;;11.40;7.60;;;;;;;;;;5015896;28;20088;-73
2021/11/25 00:59:07;;;;;;;12.27;7.68;;;;;;;;;;5015721;28;20504;-74
2021/11/25 01:01:34;;;;;;;12.05;8.05;;;;;;;;;;5015843;28;20056;-77
2021/11/25 01:04:02;;;;;;;9.55;7.55;;;;;;;;;;5015862;28;20048;-74
2021/11/25 01:06:32;;;;;;;10.70;6.45;;;;;;;;;;5015898;28;20042;-74
2021/11/25 01:09:01;;;;;;;14.65;8.57;;;;;;;;;;5015402;28;20042;-74
2021/11/25 01:11:43;;;;;;;11.63;7.22;;;;;;;;;;5015701;28;20464;-74
2021/11/25 01:14:11;;;;;;;9.50;6.82;;;;;;;;;;4998704;28;20044;-76
2021/11/25 01:16:39;;;;;;;10.75;7.20;;;;;;;;;;5015283;28;20069;-75
2021/11/25 01:19:07;;;;;;;12.90;7.50;;;;;;;;;;5015453;28;20445;-76
2021/11/25 01:21:36;;;;;;;9.60;6.95;;;;;;;;;;4997392;28;20145;-77
2021/11/25 01:24:07;;;;;;;11.13;7.60;;;;;;;;;;5015110;28;20050;-77
2021/11/25 01:26:35;;;;;;;13.05;7.68;;;;;;;;;;5015503;28;20385;-75
2021/11/25 01:29:03;;;;;;;11.88;6.93;;;;;;;;;;5015423;28;20053;-76
2021/11/25 01:31:31;;;;;;;11.60;7.35;;;;;;;;;;5015282;28;20060;-74
2021/11/25 01:34:00;;;;;;;13.77;7.53;;;;;;;;;;5015289;28;20034;-74
2021/11/25 01:36:27;;;;;;;9.52;7.53;;;;;;;;;;5015230;28;20042;-73
2021/11/25 01:38:58;;;;;;;12.32;6.88;;;;;;;;;;4997676;28;20477;-77
2021/11/25 01:41:26;;;;;;;9.88;6.60;;;;;;;;;;4997616;28;20125;-76
2021/11/25 01:43:53;;;;;;;12.00;6.60;;;;;;;;;;5013844;28;20044;-73
2021/11/25 01:46:23;;;;;;;13.55;7.00;;;;;;;;;;5015100;28;20069;-73
2021/11/25 01:48:52;;;;;;;9.52;6.03;;;;;;;;;;5015226;28;20038;-74
2021/11/25 01:51:22;;;;;;;7.03;6.05;;;;;;;;;;5014666;28;20042;-76
2021/11/25 01:53:52;;;;;;;7.55;5.68;;;;;;;;;;5015074;28;20044;-74
2021/11/25 01:56:24;;;;;;;8.73;5.75;;;;;;;;;;5014679;28;20042;-76
2021/11/25 01:58:52;;;;;;;9.38;5.57;;;;;;;;;;5014589;28;20037;-76
2021/11/25 02:01:22;;;;;;;7.57;5.50;;;;;;;;;;5014805;28;20481;-76
2021/11/25 02:03:51;;;;;;;10.60;6.40;;;;;;;;;;5014577;28;20045;-77
2021/11/25 02:06:19;;;;;;;9.45;5.03;;;;;;;;;;5014291;28;20029;-77
2021/11/25 02:08:46;;;;;;;9.77;5.03;;;;;;;;;;4997399;28;20050;-73
2021/11/25 02:11:15;;;;;;;6.82;5.38;;;;;;;;;;5014341;28;20045;-74
2021/11/25 02:13:43;;;;;;;10.38;5.63;;;;;;;;;;5014649;28;20042;-74
2021/11/25 02:16:10;;;;;;;7.95;5.38;;;;;;;;;;4997479;28;20045;-76
2021/11/25 02:18:40;;;;;;;8.85;4.75;;;;;;;;;;5014265;28;20405;-74
2021/11/25 02:21:09;;;;;;;5.72;4.50;;;;;;;;;;5014328;28;20030;-77
2021/11/25 02:23:38;;;;;;;7.68;4.55;;;;;;;;;;4996647;28;20140;-76
2021/11/25 02:26:06;;;;;;;6.57;4.65;;;;;;;;;;4997090;28;20046;-76
2021/11/25 02:28:36;;;;;;;5.93;4.50;;;;;;;;;;4996695;28;20045;-74
2021/11/25 02:31:04;;;;;;;10.90;5.43;;;;;;;;;;5014723;28;20125;-73
2021/11/25 02:33:32;;;;;;;9.82;4.20;;;;;;;;;;5014263;28;20034;-74
2021/11/25 02:36:00;;;;;;;6.68;4.00;;;;;;;;;;5013876;28;20044;-77
2021/11/25 02:38:27;;;;;;;7.90;4.57;;;;;;;;;;5014180;28;20037;-74
2021/11/25 02:40:56;;;;;;;5.70;4.05;;;;;;;;;;5013704;28;20432;-74
2021/11/25 02:43:26;;;;;;;6.43;3.90;;;;;;;;;;4996781;28;20048;-76
2021/11/25 02:46:20;;;;;;;6.18;3.45;;;;;;;;;;4996701;28;20064;-74
2021/11/25 02:48:50;;;;;;;5.47;3.83;;;;;;;;;;5010745;28;20054;-74
2021/11/25 02:51:19;;;;;;;6.05;3.70;;;;;;;;;;5013919;28;20081;-74
2021/11/25 02:53:49;;;;;;;8.20;3.50;;;;;;;;;;5014388;28;20108;-76
2021/11/25 02:56:18;;;;;;;5.93;3.42;;;;;;;;;;5011948;28;20034;-76
2021/11/25 02:58:46;;;;;;;7.38;3.63;;;;;;;;;;4995658;28;20052;-77
2021/11/25 03:01:16;;;;;;;4.95;3.55;;;;;;;;;;4996405;28;20048;-76
2021/11/25 03:03:44;;;;;;;4.45;3.47;;;;;;;;;;5013257;28;20049;-77
2021/11/25 03:06:11;;;;;;;5.13;4.03;;;;;;;;;;4996027;28;20042;-77
2021/11/25 03:08:40;;;;;;;7.60;3.90;;;;;;;;;;5013802;28;20121;-76
2021/11/25 03:11:09;;;;;;;8.02;4.13;;;;;;;;;;4996155;28;20393;-77
2021/11/25 03:13:37;;;;;;;5.00;3.65;;;;;;;;;;5013863;28;20088;-77
2021/11/25 03:16:06;;;;;;;4.32;3.65;;;;;;;;;;5013888;28;20065;-74
2021/11/25 03:18:34;;;;;;;4.68;3.45;;;;;;;;;;4995428;28;20038;-75
2021/11/25 03:21:02;;;;;;;5.45;3.80;;;;;;;;;;4995675;28;20041;-77
2021/11/25 03:23:32;;;;;;;6.30;3.47;;;;;;;;;;4996426;28;20038;-76
2021/11/25 03:26:01;;;;;;;6.85;3.38;;;;;;;;;;4995631;28;20049;-76
2021/11/25 03:28:29;;;;;;;8.02;3.90;;;;;;;;;;5013446;28;20049;-74
2021/11/25 03:30:59;;;;;;;5.72;3.63;;;;;;;;;;5013446;28;20047;-74
2021/11/25 03:33:29;;;;;;;6.57;4.00;;;;;;;;;;5012872;28;20069;-74
2021/11/25 03:35:57;;;;;;;8.02;3.50;;;;;;;;;;5013574;28;20042;-74
2021/11/25 03:38:25;;;;;;;5.65;3.72;;;;;;;;;;5013109;28;20038;-74
2021/11/25 03:40:54;;;;;;;5.40;3.67;;;;;;;;;;5013221;28;20046;-77
2021/11/25 03:43:22;;;;;;;4.85;3.45;;;;;;;;;;4995940;28;20045;-77
2021/11/25 03:45:50;;;;;;;6.78;3.83;;;;;;;;;;4995774;28;20104;-77
2021/11/25 03:48:18;;;;;;;5.15;3.45;;;;;;;;;;4995202;28;20038;-74
2021/11/25 03:50:45;;;;;;;7.80;3.65;;;;;;;;;;5013296;28;20046;-76
2021/11/25 03:53:13;;;;;;;5.88;3.85;;;;;;;;;;5013261;28;20042;-74
2021/11/25 03:55:42;;;;;;;7.93;3.90;;;;;;;;;;5012888;28;20044;-77
2021/11/25 03:58:10;;;;;;;6.35;4.10;;;;;;;;;;5013024;28;20519;-77
2021/11/25 04:00:38;;;;;;;4.80;3.55;;;;;;;;;;5012930;28;20042;-77
2021/11/25 04:03:07;;;;;;;8.85;4.07;;;;;;;;;;5012334;28;20506;-77
2021/11/25 04:05:35;;;;;;;6.63;4.20;;;;;;;;;;5013102;28;20045;-77
2021/11/25 04:08:04;;;;;;;6.22;4.15;;;;;;;;;;5016578;28;20106;-74
2021/11/25 04:10:31;;;;;;;8.27;4.10;;;;;;;;;;5016684;28;20485;-77
2021/11/25 04:13:04;;;;;;;7.75;4.32;;;;;;;;;;5016828;28;20050;-76
2021/11/25 04:15:32;;;;;;;;;;;;;;;;;;5017176;28;20041;-75
2021/11/25 04:18:03;;;;;;;11.13;4.18;;;;;;;;;;5016243;28;19928;-73
2021/11/25 04:20:34;;;;;;;6.72;4.05;;;;;;;;;;5016488;28;20555;-74
2021/11/25 04:23:03;;;;;;;9.07;4.28;;;;;;;;;;4998732;28;20116;-73
2021/11/25 04:25:30;;;;;;;7.53;4.85;;;;;;;;;;5016457;28;20060;-77
2021/11/25 04:27:58;;;;;;;6.13;4.38;;;;;;;;;;5016430;28;20077;-77
2021/11/25 04:30:46;;;;;;;6.03;4.97;;;;;;;;;;5016041;28;20053;-74
2021/11/25 04:36:01;;;;;;;7.60;5.15;;;;;;;;;;5015837;28;20038;-77
2021/11/25 04:38:29;;;;;;;7.00;5.40;;;;;;;;;;4998883;28;20042;-75
2021/11/25 04:40:59;;;;;;;10.48;5.50;;;;;;;;;;5016311;28;20050;-77
2021/11/25 04:43:28;;;;;;;8.27;5.50;;;;;;;;;;4999187;28;20077;-77
2021/11/25 04:45:56;;;;;;;6.85;5.32;;;;;;;;;;5015491;28;20079;-73
2021/11/25 04:48:26;;;;;;;10.77;5.55;;;;;;;;;;4998445;28;20493;-74
2021/11/25 04:50:54;;;;;;;9.98;6.00;;;;;;;;;;5016169;28;20069;-74
2021/11/25 04:53:24;;;;;;;9.65;5.82;;;;;;;;;;5016130;28;20038;-74
2021/11/25 04:55:52;;;;;;;14.45;5.95;;;;;;;;;;5015689;28;20050;-74
2021/11/25 04:58:21;;;;;;;11.07;6.00;;;;;;;;;;5015758;28;20034;-77
2021/11/25 05:00:49;;;;;;;11.82;6.05;;;;;;;;;;5015095;28;20124;-74
2021/11/25 05:03:17;;;;;;;9.13;5.32;;;;;;;;;;5015670;28;20050;-74
2021/11/25 05:05:45;;;;;;;11.07;5.75;;;;;;;;;;5015836;28;20049;-74
2021/11/25 05:08:12;;;;;;;10.65;5.90;;;;;;;;;;4998248;28;20050;-74
2021/11/25 05:10:40;;;;;;;8.27;5.20;;;;;;;;;;5015833;28;20048;-74
2021/11/25 05:13:08;;;;;;;7.10;5.35;;;;;;;;;;5015412;28;20054;-74
2021/11/25 05:15:37;;;;;;;10.60;5.53;;;;;;;;;;4997666;28;20405;-77
2021/11/25 05:18:05;;;;;;;7.22;5.30;;;;;;;;;;5015642;28;20034;-73
2021/11/25 05:20:32;;;;;;;9.70;5.20;;;;;;;;;;5015252;28;20041;-73
2021/11/25 05:23:02;;;;;;;8.25;5.63;;;;;;;;;;5015185;28;20409;-74
2021/11/25 05:25:32;;;;;;;7.05;5.35;;;;;;;;;;5015612;28;20046;-75
2021/11/25 05:28:00;;;;;;;9.25;5.65;;;;;;;;;;5016126;28;20045;-74
2021/11/25 05:30:31;;;;;;;10.80;5.40;;;;;;;;;;5014705;28;20045;-74
2021/11/25 05:33:01;;;;;;;6.57;5.88;;;;;;;;;;4998426;28;20069;-76
2021/11/25 05:35:29;;;;;;;11.48;5.82;;;;;;;;;;5015116;28;20048;-76
2021/11/25 05:37:57;;;;;;;11.38;6.03;;;;;;;;;;4997716;28;20524;-74
2021/11/25 05:40:25;;;;;;;8.93;6.05;;;;;;;;;;4997711;28;20354;-77
2021/11/25 05:42:52;;;;;;;13.52;6.50;;;;;;;;;;5014664;28;20065;-74
2021/11/25 05:45:22;;;;;;;9.93;6.90;;;;;;;;;;5015043;28;20068;-74
2021/11/25 05:47:52;;;;;;;10.88;6.40;;;;;;;;;;5014812;28;20415;-76
2021/11/25 05:50:29;;;;;;;11.75;6.85;;;;;;;;;;5014822;28;20076;-74
2021/11/25 05:52:58;;;;;;;10.45;7.63;;;;;;;;;;5014853;28;20132;-77
2021/11/25 05:55:27;;;;;;;12.10;7.43;;;;;;;;;;5015220;28;20393;-75
2021/11/25 05:57:55;;;;;;;9.30;7.68;;;;;;;;;;4964870;28;20038;-74
2021/11/25 06:00:23;;;;;;;10.63;7.68;;;;;;;;;;5014563;28;20044;-76
2021/11/25 06:02:55;;;;;;;8.23;6.50;;;;;;;;;;5013984;28;20074;-76
2021/11/25 06:05:23;;;;;;;10.13;7.57;;;;;;;;;;5014464;28;20057;-77
2021/11/25 06:07:51;;;;;;;11.65;7.70;;;;;;;;;;4997447;28;20057;-75
2021/11/25 06:10:21;;;;;;;10.40;7.50;;;;;;;;;;5014183;28;20038;-77
2021/11/25 06:12:50;;;;;;;14.70;7.50;;;;;;;;;;5013774;28;20045;-73
2021/11/25 06:15:18;;;;;;;11.23;7.88;;;;;;;;;;5014165;28;20042;-73
2021/11/25 06:17:45;;;;;;;9.57;7.47;;;;;;;;;;5013884;28;20054;-77
2021/11/25 06:20:16;;;;;;;9.48;7.30;;;;;;;;;;5014487;28;20046;-73
2021/11/25 06:22:49;;;;;;;11.13;7.18;;;;;;;;;;4996696;28;20467;-74
2021/11/25 06:25:18;;;;;;;12.07;6.97;;;;;;;;;;5013961;28;20536;-77
2021/11/25 06:27:46;;;;;;;9.68;6.57;;;;;;;;;;5013786;28;20041;-76
2021/11/25 06:30:15;;;;;;;9.52;6.38;;;;;;;;;;5013389;28;20377;-77
2021/11/25 06:32:44;;;;;;;11.32;6.22;;;;;;;;;;5013346;28;20049;-77
2021/11/25 06:35:15;;;;;;;9.85;5.65;;;;;;;;;;4995933;28;20486;-77
2021/11/25 06:37:45;;;;;;;9.63;6.13;;;;;;;;;;5013475;28;20081;-73
2021/11/25 06:40:14;;;;;;;7.40;5.10;;;;;;;;;;5013777;28;20046;-72
2021/11/25 06:42:42;;;;;;;9.40;5.13;;;;;;;;;;5013746;28;20050;-75
2021/11/25 06:45:11;;;;;;;9.20;5.53;;;;;;;;;;5013665;28;20493;-74
2021/11/25 06:47:41;;;;;;;9.25;5.03;;;;;;;;;;5013268;28;20052;-74
2021/11/25 06:50:09;;;;;;;8.05;5.10;;;;;;;;;;5012598;28;20482;-73
2021/11/25 06:52:38;;;;;;;8.90;5.32;;;;;;;;;;5012723;28;20414;-73
2021/11/25 06:55:07;;;;;;;6.00;4.80;;;;;;;;;;5013109;28;20042;-74
2021/11/25 06:57:35;;;;;;;7.32;5.30;;;;;;;;;;5012956;28;20048;-74
2021/11/25 07:00:05;;;;;;;8.00;5.05;;;;;;;;;;5013398;28;20053;-74
2021/11/25 07:02:33;;;;;;;11.80;4.85;;;;;;;;;;5012713;28;20042;-77
2021/11/25 07:05:02;;;;;;;7.13;5.95;;;;;;;;;;5013001;28;20045;-74
2021/11/25 07:07:33;;;;;;;8.85;5.20;;;;;;;;;;5013119;28;20041;-73
2021/11/25 07:10:03;;;;;;;9.48;5.38;;;;;;;;;;4995556;28;20046;-74
2021/11/25 07:12:31;;;;;;;10.25;5.30;;;;;;;;;;5012571;28;20509;-77
2021/11/25 07:14:58;;;;;;;10.75;5.07;;;;;;;;;;5013171;28;20038;-75
2021/11/25 07:17:26;;;;;;;6.18;4.78;;;;;;;;;;5013157;28;20048;-75
2021/11/25 07:19:54;;;;;;;6.97;5.20;;;;;;;;;;5012710;28;20050;-74
2021/11/25 07:22:21;;;;;;;6.65;5.30;;;;;;;;;;5013170;28;20503;-76
2021/11/25 07:24:50;;;;;;;6.85;4.82;;;;;;;;;;4995412;28;20050;-75
2021/11/25 07:27:17;;;;;;;11.15;5.75;;;;;;;;;;5012839;28;20497;-76
2021/11/25 07:29:45;;;;;;;9.20;5.13;;;;;;;;;;5012794;28;20507;-74
2021/11/25 07:32:15;;;;;;;9.38;5.35;;;;;;;;;;4995682;28;20046;-73
2021/11/25 07:34:43;;;;;;;9.45;5.53;;;;;;;;;;5012661;28;20068;-73
2021/11/25 07:37:11;;;;;;;9.43;5.10;;;;;;;;;;5012865;28;20042;-73
2021/11/25 07:39:41;;;;;;;7.93;5.47;;;;;;;;;;5011329;28;20042;-73
2021/11/25 07:42:08;;;;;;;12.40;5.55;;;;;;;;;;5015136;28;20081;-74
2021/11/25 07:44:36;;;;;;;11.45;6.35;;;;;;;;;;4999868;28;20042;-75
2021/11/25 07:47:07;;;;;;;7.25;5.70;;;;;;;;;;5016700;28;20456;-73
2021/11/25 07:49:37;;;;;;;9.48;5.60;;;;;;;;;;4999677;28;20046;-73
2021/11/25 07:52:06;;;;;;;10.35;5.43;;;;;;;;;;5016558;28;20413;-76
2021/11/25 07:54:36;;;;;;;10.18;5.57;;;;;;;;;;5016258;28;20046;-75
2021/11/25 07:57:03;;;;;;;9.23;5.75;;;;;;;;;;4999470;28;20038;-76
2021/11/25 07:59:31;;;;;;;11.52;5.70;;;;;;;;;;4999262;28;20042;-77
2021/11/25 08:01:59;;;;;;;9.82;5.40;;;;;;;;;;5016326;28;20052;-73
2021/11/25 08:04:29;;;;;;;9.23;5.80;;;;;;;;;;5016257;28;20462;-73
2021/11/25 08:06:57;;;;;;;11.95;6.30;;;;;;;;;;5016636;28;20084;-74
2021/11/25 08:09:24;;;;;;;5.75;4.75;;;;;;;;;;5016045;28;20046;-73
2021/11/25 08:11:52;;;;;;;12.48;6.00;;;;;;;;;;5006480;23;20497;-76
2021/11/25 08:14:22;;;;;;;9.82;5.75;;;;;;;;;;4999172;28;20038;-73
2021/11/25 08:16:57;;;;;;;10.00;6.13;;;;;;;;;;5016086;28;20042;-75
2021/11/25 08:19:25;;;;;;;11.70;5.93;;;;;;;;;;5015981;28;20049;-76
2021/11/25 08:21:53;;;;;;;7.93;5.10;;;;;;;;;;5016018;28;20249;-74
2021/11/25 08:24:22;;;;;;;11.68;5.60;;;;;;;;;;5015901;28;20048;-73
2021/11/25 08:26:50;;;;;;;8.90;6.18;;;;;;;;;;5015952;28;20049;-76
2021/11/25 08:29:18;;;;;;;8.48;5.68;;;;;;;;;;5015654;28;20433;-74
2021/11/25 08:31:46;;;;;;;11.15;6.03;;;;;;;;;;5015785;28;20045;-76
2021/11/25 08:34:14;;;;;;;9.65;5.75;;;;;;;;;;5016038;28;20042;-74
2021/11/25 08:36:41;;;;;;;11.88;6.25;;;;;;;;;;5015532;28;20042;-74
2021/11/25 08:39:10;;;;;;;12.25;5.53;;;;;;;;;;5015709;28;20046;-77
2021/11/25 08:41:38;;;;;;;10.13;6.03;;;;;;;;;;5015670;28;20061;-74
2021/11/25 08:44:05;;;;;;;10.90;5.65;;;;;;;;;;5015626;28;20121;-75
2021/11/25 08:46:36;;;;;;;7.38;5.03;;;;;;;;;;5015743;28;20042;-73
2021/11/25 08:49:03;;;;;;;7.65;5.00;;;;;;;;;;5015851;28;20125;-73
2021/11/25 08:51:31;;;;;;;7.03;4.97;;;;;;;;;;5015214;28;20117;-73
2021/11/25 08:54:02;;;;;;;5.55;4.28;;;;;;;;;;5014972;28;20049;-77
2021/11/25 08:56:30;;;;;;;7.45;4.97;;;;;;;;;;4997765;28;20042;-75
2021/11/25 08:59:00;;;;;;;9.27;5.07;;;;;;;;;;5015779;28;20048;-73
2021/11/25 09:01:27;;;;;;;9.32;5.18;;;;;;;;;;5015422;28;20481;-77
2021/11/25 09:03:56;;;;;;;7.60;4.70;;;;;;;;;;4997078;28;20465;-73
2021/11/25 09:06:24;;;;;;;9.68;4.93;;;;;;;;;;5015335;28;20464;-76
2021/11/25 09:08:52;;;;;;;8.30;4.80;;;;;;;;;;5015297;28;20049;-74
2021/11/25 09:11:21;;;;;;;11.13;4.75;;;;;;;;;;5014885;28;20574;-76
2021/11/25 09:13:49;;;;;;;6.53;4.68;;;;;;;;;;4997573;28;20404;-74
2021/11/25 09:16:17;;;;;;;10.40;4.97;;;;;;;;;;5015523;28;20117;-75
2021/11/25 09:18:45;;;;;;;8.32;5.20;;;;;;;;;;5015032;28;20045;-76
2021/11/25 09:21:13;;;;;;;8.27;5.20;;;;;;;;;;4997696;28;20500;-75
2021/11/25 09:23:41;;;;;;;8.57;5.60;;;;;;;;;;5014908;28;20038;-73
2021/11/25 09:26:09;;;;;;;7.03;4.72;;;;;;;;;;4997212;28;20052;-74
2021/11/25 09:28:37;;;;;;;10.20;5.72;;;;;;;;;;5015080;28;20041;-74
2021/11/25 09:31:13;;;;;;;9.38;5.57;;;;;;;;;;5015071;28;20052;-76
2021/11/25 09:33:43;;;;;;;10.20;6.07;;;;;;;;;;5014690;28;20121;-73
2021/11/25 09:36:11;;;;;;;10.45;6.15;;;;;;;;;;5014554;28;20052;-75
2021/11/25 09:38:43;;;;;;;11.52;6.28;;;;;;;;;;5014189;28;20141;-74
2021/11/25 09:41:11;;;;;;;11.75;6.60;;;;;;;;;;5014950;28;20034;-73
2021/11/25 09:43:40;;;;;;;7.38;5.70;;;;;;;;;;4997406;28;20057;-77
2021/11/25 09:46:12;;;;;;;14.30;6.13;;;;;;;;;;5014667;28;20046;-72
2021/11/25 09:48:39;;;;;;;12.90;5.93;;;;;;;;;;5014668;28;20042;-73
2021/11/25 09:51:08;;;;;;;11.77;6.38;;;;;;;;;;5014098;28;20038;-77
2021/11/25 09:53:37;;;;;;;12.52;6.43;;;;;;;;;;5014309;28;20382;-77
2021/11/25 09:56:05;;;;;;;12.85;7.07;;;;;;;;;;5014292;28;20064;-73
2021/11/25 09:58:34;;;;;;;13.25;7.93;;;;;;;;;;5014698;28;20125;-74
2021/11/25 10:01:06;;;;;;;10.98;7.60;;;;;;;;;;5014347;28;20493;-74
2021/11/25 10:03:36;;;;;;;17.35;8.32;;;;;;;;;;5013275;28;20038;-73
2021/11/25 10:06:05;;;;;;;17.20;8.57;;;;;;;;;;5013737;28;20042;-75
2021/11/25 10:08:44;;;;;;;13.73;9.07;;;;;;;;;;5014377;28;20060;-74
2021/11/25 10:11:11;;;;;;;15.32;9.40;;;;;;;;;;4997253;28;20843;-73
2021/11/25 10:13:45;;;;;;;11.52;8.63;;;;;;;;;;5013873;28;20049;-75
2021/11/25 10:16:35;;;;;;;11.63;7.82;;;;;;;;;;5014202;28;20461;-76
2021/11/25 10:19:17;;;;;;;12.75;6.78;;;;;;;;;;5012581;28;20056;-76
2021/11/25 10:21:52;;;;;;;9.10;6.50;;;;;;;;;;5013790;28;20060;-76
2021/11/25 10:24:39;;;;;;;14.50;6.90;;;;;;;;;;5013854;28;20088;-76
2021/11/25 10:27:13;;;;;;;12.57;6.22;;;;;;;;;;5013773;28;20081;-73
2021/11/25 10:29:41;;;;;;;12.13;5.75;;;;;;;;;;4996538;28;20050;-73
2021/11/25 10:32:14;;;;;;;14.52;5.70;;;;;;;;;;4996373;28;20049;-73
2021/11/25 10:34:55;;;;;;;11.48;5.63;;;;;;;;;;5013087;28;20096;-75
2021/11/25 10:37:52;;;;;;;10.18;5.07;;;;;;;;;;5013727;28;20046;-76
2021/11/25 10:40:26;;;;;;;10.15;6.65;;;;;;;;;;4999845;28;20041;-77
2021/11/25 10:42:54;;;;;;;15.45;5.65;;;;;;;;;;5013574;28;20497;-76
2021/11/25 10:45:22;;;;;;;12.60;6.68;;;;;;;;;;5013817;28;20049;-73
2021/11/25 10:48:00;;;;;;;12.00;7.30;;;;;;;;;;4995573;28;20064;-76
2021/11/25 10:50:29;;;;;;;13.50;6.63;;;;;;;;;;5013259;28;20042;-76
2021/11/25 10:53:07;;;;;;;10.25;5.38;;;;;;;;;;5013466;28;20516;-75
2021/11/25 10:55:38;;;;;;;11.52;5.60;;;;;;;;;;4996295;28;20042;-75
2021/11/25 10:58:07;;;;;;;11.18;6.28;;;;;;;;;;5013437;28;20413;-76
2021/11/25 11:00:36;;;;;;;8.63;5.95;;;;;;;;;;4996099;28;20046;-73
2021/11/25 11:03:08;;;;;;;8.07;6.53;;;;;;;;;;5012783;28;20434;-74
2021/11/25 11:05:56;;;;;;;13.48;5.95;;;;;;;;;;5013021;28;20056;-76
2021/11/25 11:08:26;;;;;;;10.23;5.40;;;;;;;;;;5012950;28;20050;-77
2021/11/25 11:10:55;;;;;;;10.30;5.90;;;;;;;;;;5012987;28;20489;-73
2021/11/25 11:18:57;;;;;;;8.63;5.72;;;;;;;;;;5012700;28;20069;-76
2021/11/25 11:21:37;;;;;;;16.00;6.70;;;;;;;;;;5012724;28;20042;-74
2021/11/25 11:24:06;;;;;;;10.20;5.78;;;;;;;;;;5012673;28;20049;-74
2021/11/25 11:26:45;;;;;;;10.38;6.32;;;;;;;;;;5012370;28;20060;-75
2021/11/25 11:29:14;;;;;;;11.45;5.85;;;;;;;;;;4995496;28;20076;-75
2021/11/25 11:31:43;;;;;;;15.52;6.40;;;;;;;;;;5012749;28;20042;-73
2021/11/25 11:34:12;;;;;;;13.40;7.45;;;;;;;;;;4995674;28;20038;-75
2021/11/25 11:36:43;;;;;;;13.40;5.93;;;;;;;;;;5012647;28;20041;-77
2021/11/25 11:39:13;;;;;;;8.00;5.40;;;;;;;;;;5012942;28;20048;-75
2021/11/25 11:41:48;;;;;;;8.27;5.20;;;;;;;;;;4995894;28;20087;-77
2021/11/25 11:44:22;;;;;;;10.02;5.22;;;;;;;;;;5012676;28;20064;-76
2021/11/25 11:46:51;;;;;;;8.38;5.20;;;;;;;;;;5012499;28;20553;-73
2021/11/25 11:49:22;;;;;;;10.10;5.05;;;;;;;;;;4995618;28;20038;-76
2021/11/25 11:52:03;;;;;;;9.18;5.13;;;;;;;;;;5012581;28;20054;-75
2021/11/25 11:55:01;;;;;;;9.30;5.05;;;;;;;;;;4995222;28;20050;-75
2021/11/25 11:57:33;;;;;;;11.50;5.35;;;;;;;;;;4996796;28;20133;-77
2021/11/25 12:00:03;;;;;;;6.82;4.50;;;;;;;;;;5012445;28;20042;-77
2021/11/25 12:02:40;;;;;;;10.75;4.53;;;;;;;;;;5012697;28;20128;-75
2021/11/25 12:05:08;;;;;;;11.73;4.82;;;;;;;;;;5012053;28;20408;-73
2021/11/25 12:07:37;;;;;;;8.38;5.38;;;;;;;;;;5012317;28;20048;-73
2021/11/25 12:10:26;;;;;;;10.68;5.28;;;;;;;;;;5012275;28;20045;-75
2021/11/25 12:13:04;;;;;;;7.30;4.47;;;;;;;;;;5012211;28;20061;-76
2021/11/25 12:15:33;;;;;;;6.80;4.55;;;;;;;;;;5011446;28;20072;-76
2021/11/25 12:18:01;;;;;;;7.30;4.82;;;;;;;;;;5011902;28;20072;-76
2021/11/25 12:20:37;;;;;;;5.95;4.20;;;;;;;;;;5012220;28;20034;-73
2021/11/25 12:23:06;;;;;;;6.50;4.32;;;;;;;;;;5011845;28;20452;-74
2021/11/25 12:25:40;;;;;;;5.63;4.38;;;;;;;;;;5012139;28;20042;-76
2021/11/25 12:28:18;;;;;;;4.75;3.92;;;;;;;;;;5013911;28;20046;-74
2021/11/25 12:30:53;;;;;;;9.65;4.00;;;;;;;;;;4998318;28;20050;-76
2021/11/25 12:33:37;;;;;;;4.90;3.70;;;;;;;;;;5015717;28;20056;-76
2021/11/25 12:36:07;;;;;;;5.60;4.00;;;;;;;;;;5015616;28;20038;-74
2021/11/25 12:38:36;;;;;;;6.20;4.00;;;;;;;;;;5015689;28;20088;-73
2021/11/25 12:41:11;;;;;;;6.63;4.00;;;;;;;;;;5015297;28;20152;-76
2021/11/25 12:43:42;;;;;;;6.80;3.70;;;;;;;;;;5012982;28;20269;-74
2021/11/25 12:46:21;;;;;;;4.60;3.10;;;;;;;;;;4985841;28;20041;-75
2021/11/25 12:48:55;;;;;;;6.93;3.40;;;;;;;;;;4985595;28;20502;-75
2021/11/25 12:51:29;;;;;;;3.78;3.08;;;;;;;;;;5005298;28;20054;-74
2021/11/25 12:54:01;;;;;;;3.60;3.00;;;;;;;;;;4992874;28;20069;-74
2021/11/25 12:56:32;;;;;;;5.78;2.95;;;;;;;;;;5002688;28;20038;-75
2021/11/25 12:59:06;;;;;;;3.38;2.90;;;;;;;;;;5002697;28;20410;-73
2021/11/25 13:01:38;;;;;;;3.53;2.88;;;;;;;;;;5003641;28;20038;-77
2021/11/25 13:04:17;;;;;;;5.22;3.17;;;;;;;;;;5002281;28;20043;-73
2021/11/25 13:06:50;;;;;;;5.38;2.80;;;;;;;;;;5002625;28;20037;-74
2021/11/25 13:09:18;;;;;;;;;;;;;;;;;;5003616;28;20045;-73
2021/11/25 13:11:47;;;;;;;3.50;2.55;;;;;;;;;;4986745;28;19928;-76
2021/11/25 13:14:25;;;;;;;4.35;3.30;;;;;;;;;;5003396;28;20425;-77
2021/11/25 13:16:54;;;;;;;5.63;3.15;;;;;;;;;;5003162;28;20133;-77
2021/11/25 13:19:28;;;;;;;5.05;2.85;;;;;;;;;;5009380;28;20092;-76
2021/11/25 13:21:58;;;;;;;4.93;3.00;;;;;;;;;;5015193;28;20386;-77
2021/11/25 13:24:38;;;;;;;7.60;3.58;;;;;;;;;;5015520;28;20056;-74
2021/11/25 13:27:08;;;;;;;5.90;3.28;;;;;;;;;;5014593;28;20512;-77
2021/11/25 13:29:39;;;;;;;4.38;3.05;;;;;;;;;;4997170;28;20444;-76
2021/11/25 13:32:18;;;;;;;6.03;3.30;;;;;;;;;;5015141;28;20042;-75
2021/11/25 13:34:49;;;;;;;4.30;3.15;;;;;;;;;;5015176;28;20138;-77
2021/11/25 13:37:20;;;;;;;4.88;3.10;;;;;;;;;;4998081;28;20124;-74
2021/11/25 13:39:55;;;;;;;14.07;3.63;;;;;;;;;;5014926;28;20124;-71
2021/11/25 13:42:23;;;;;;;7.93;4.05;;;;;;;;;;5014762;28;20112;-72
2021/11/25 13:44:53;;;;;;;5.85;2.35;;;;;;;;;;4996497;28;20413;-74
2021/11/25 13:47:22;;;;;;;9.13;3.10;;;;;;;;;;4998961;28;20061;-73
2021/11/25 13:50:00;;;;;;;5.40;2.88;;;;;;;;;;4989525;28;20506;-71
2021/11/25 13:52:32;;;;;;;7.15;3.00;;;;;;;;;;5003336;28;20066;-75
2021/11/25 13:55:00;;;;;;;5.25;2.92;;;;;;;;;;4989392;28;20038;-77
2021/11/25 13:57:28;;;;;;;6.75;3.00;;;;;;;;;;5006865;28;20116;-77
2021/11/25 14:00:01;;;;;;;8.35;3.40;;;;;;;;;;5003545;28;20394;-77
2021/11/25 14:02:39;;;;;;;6.82;2.97;;;;;;;;;;5019806;28;20045;-73
2021/11/25 14:05:09;;;;;;;4.72;3.08;;;;;;;;;;5010006;28;20061;-74
2021/11/25 14:07:37;;;;;;;6.25;3.13;;;;;;;;;;4971755;28;20396;-77
2021/11/25 14:10:21;;;;;;;5.63;3.97;;;;;;;;;;5005256;28;20037;-76
2021/11/25 14:12:49;;;;;;;13.48;3.70;;;;;;;;;;5004590;28;20121;-77
2021/11/25 14:15:26;;;;;;;9.68;3.35;;;;;;;;;;4986344;28;20041;-76
2021/11/25 14:17:57;;;;;;;5.55;3.28;;;;;;;;;;5003536;28;20112;-76
2021/11/25 14:20:28;;;;;;;6.78;3.60;;;;;;;;;;5004005;28;20039;-76
2021/11/25 14:22:57;;;;;;;5.40;3.00;;;;;;;;;;5014333;28;20052;-75
2021/11/25 14:25:37;;;;;;;8.32;3.00;;;;;;;;;;5014414;28;20041;-73
2021/11/25 14:31:08;;;;;;;6.45;3.38;;;;;;;;;;5014911;28;20046;-75
2021/11/25 14:33:47;;;;;;;6.47;3.47;;;;;;;;;;5012938;28;20042;-74
2021/11/25 14:36:18;;;;;;;8.93;3.45;;;;;;;;;;5011518;28;20560;-76
2021/11/25 14:38:47;;;;;;;5.25;2.97;;;;;;;;;;5013482;28;20038;-74
2021/11/25 14:41:25;;;;;;;12.75;3.55;;;;;;;;;;5013276;28;20034;-74
2021/11/25 14:44:19;;;;;;;10.15;3.85;;;;;;;;;;5014082;28;20095;-72
2021/11/25 14:47:20;;;;;;;7.53;3.40;;;;;;;;;;5009725;28;20081;-73
2021/11/25 14:49:50;;;;;;;8.07;3.55;;;;;;;;;;4991453;28;20056;-73
2021/11/25 14:52:28;;;;;;;9.88;3.53;;;;;;;;;;5013336;28;20049;-73
2021/11/25 14:55:23;;;;;;;9.88;3.78;;;;;;;;;;5011085;28;20042;-73
2021/11/25 14:58:00;;;;;;;12.45;4.03;;;;;;;;;;5012156;28;20061;-74
2021/11/25 15:00:35;;;;;;;8.85;3.47;;;;;;;;;;5012421;28;20038;-73
2021/11/25 15:03:04;;;;;;;11.55;4.60;;;;;;;;;;5013462;28;20046;-74
2021/11/25 15:05:34;;;;;;;13.38;4.22;;;;;;;;;;5006149;28;20053;-73
2021/11/25 15:08:05;;;;;;;10.18;4.20;;;;;;;;;;5013455;28;20041;-73
2021/11/25 15:10:43;;;;;;;7.47;4.20;;;;;;;;;;4995775;28;20425;-74